createdAt,value
2016-10-21T00:00:18.797Z,951.22
2016-10-21T00:01:12.661Z,951.21
2016-10-21T00:02:14.634Z,951.20
2016-10-21T00:03:16.309Z,951.19
2016-10-21T00:04:13.672Z,951.23
2016-10-21T00:05:15.754Z,951.20
2016-10-21T00:06:14.066Z,951.22
2016-10-21T00:07:12.629Z,951.24
2016-10-21T00:08:13.212Z,951.25
2016-10-21T00:09:12.067Z,951.25
2016-10-21T00:10:15.265Z,951.28
2016-10-21T00:11:13.861Z,951.24
2016-10-21T00:12:10.064Z,951.24
2016-10-21T00:13:13.234Z,951.24
2016-10-21T00:14:12.235Z,951.21
2016-10-21T00:15:12.939Z,951.20
2016-10-21T00:16:12.484Z,951.18
2016-10-21T00:17:14.558Z,951.19
2016-10-21T00:18:12.977Z,951.15
2016-10-21T00:19:12.720Z,951.15
2016-10-21T00:20:12.683Z,951.16
2016-10-21T00:21:12.198Z,951.18
2016-10-21T00:22:12.653Z,951.14
2016-10-21T00:23:12.475Z,951.14
2016-10-21T00:24:14.726Z,951.12
2016-10-21T00:25:13.585Z,951.09
2016-10-21T00:26:12.796Z,951.13
2016-10-21T00:27:12.448Z,951.09
2016-10-21T00:28:12.628Z,951.09
2016-10-21T00:29:11.414Z,951.07
2016-10-21T00:30:13.991Z,951.09
2016-10-21T00:31:12.361Z,951.02
2016-10-21T00:32:19.095Z,951.06
2016-10-21T00:33:13.048Z,951.03
2016-10-21T00:34:12.856Z,950.99
2016-10-21T00:35:12.713Z,951.00
2016-10-21T00:36:10.885Z,951.06
2016-10-21T00:37:12.468Z,951.02
2016-10-21T00:38:13.052Z,951.02
2016-10-21T00:39:12.662Z,950.99
2016-10-21T00:40:13.617Z,950.95
2016-10-21T00:41:14.367Z,950.91
2016-10-21T00:42:13.113Z,950.92
2016-10-21T00:43:12.748Z,950.90
2016-10-21T00:44:11.786Z,950.87
2016-10-21T00:45:11.829Z,950.85
2016-10-21T00:46:11.789Z,950.89
2016-10-21T00:47:13.439Z,950.85
2016-10-21T00:48:13.573Z,950.84
2016-10-21T00:49:12.406Z,950.82
2016-10-21T00:50:15.185Z,950.82
2016-10-21T00:51:19.025Z,950.85
2016-10-21T00:52:11.906Z,950.85
2016-10-21T00:53:12.645Z,950.82
2016-10-21T00:54:13.221Z,950.79
2016-10-21T00:55:13.930Z,950.82
2016-10-21T00:56:12.811Z,950.82
2016-10-21T00:57:12.596Z,950.85
2016-10-21T00:58:13.206Z,950.83
2016-10-21T00:59:15.436Z,950.76
2016-10-21T01:00:12.600Z,950.78
2016-10-21T01:01:13.524Z,950.77
2016-10-21T01:02:13.405Z,950.77
2016-10-21T01:03:11.099Z,950.77
2016-10-21T01:04:14.394Z,950.75
2016-10-21T01:05:13.798Z,950.76
2016-10-21T01:06:15.483Z,950.82
2016-10-21T01:07:12.596Z,950.87
2016-10-21T01:08:13.249Z,950.86
2016-10-21T01:09:12.823Z,950.87
2016-10-21T01:10:13.286Z,950.85
2016-10-21T01:11:13.618Z,950.80
2016-10-21T01:12:13.394Z,950.77
2016-10-21T01:13:15.233Z,950.80
2016-10-21T01:14:12.314Z,950.79
2016-10-21T01:15:12.645Z,950.77
2016-10-21T01:16:12.218Z,950.76
2016-10-21T01:17:15.183Z,950.72
2016-10-21T01:18:13.003Z,950.74
2016-10-21T01:19:13.534Z,950.72
2016-10-21T01:20:16.876Z,950.72
2016-10-21T01:21:11.955Z,950.71
2016-10-21T01:22:12.030Z,950.71
2016-10-21T01:23:11.067Z,950.74
2016-10-21T01:24:13.018Z,950.78
2016-10-21T01:25:14.103Z,950.75
2016-10-21T01:26:13.231Z,950.71
2016-10-21T01:27:13.877Z,950.75
2016-10-21T01:28:13.678Z,950.75
2016-10-21T01:29:13.619Z,950.74
2016-10-21T01:30:18.172Z,950.74
2016-10-21T01:31:13.837Z,950.74
2016-10-21T01:32:12.924Z,950.72
2016-10-21T01:33:12.634Z,950.71
2016-10-21T01:34:12.860Z,950.71
2016-10-21T01:35:18.209Z,950.67
2016-10-21T01:36:15.943Z,950.71
2016-10-21T01:37:12.258Z,950.67
2016-10-21T01:38:18.629Z,950.64
2016-10-21T01:39:12.870Z,950.64
2016-10-21T01:40:15.402Z,950.62
2016-10-21T01:41:12.611Z,950.60
2016-10-21T01:42:14.025Z,950.60
2016-10-21T01:43:11.779Z,950.59
2016-10-21T01:44:09.355Z,950.58
2016-10-21T01:45:14.377Z,950.58
2016-10-21T01:46:12.682Z,950.62
2016-10-21T01:47:14.983Z,950.60
2016-10-21T01:48:12.474Z,950.60
2016-10-21T01:49:14.956Z,950.62
2016-10-21T01:50:12.573Z,950.60
2016-10-21T01:51:13.996Z,950.66
2016-10-21T01:52:13.177Z,950.64
2016-10-21T01:53:13.213Z,950.67
2016-10-21T01:54:13.978Z,950.64
2016-10-21T01:55:16.168Z,950.68
2016-10-21T01:56:14.069Z,950.67
2016-10-21T01:57:13.224Z,950.68
2016-10-21T01:58:13.835Z,950.66
2016-10-21T01:59:12.271Z,950.65
2016-10-21T02:00:13.769Z,950.67
2016-10-21T02:01:11.679Z,950.71
2016-10-21T02:02:12.781Z,950.69
2016-10-21T02:03:14.422Z,950.66
2016-10-21T02:04:18.337Z,950.67
2016-10-21T02:05:13.410Z,950.64
2016-10-21T02:06:14.843Z,950.67
2016-10-21T02:07:10.032Z,950.68
2016-10-21T02:08:13.875Z,950.73
2016-10-21T02:09:12.418Z,950.71
2016-10-21T02:10:13.560Z,950.72
2016-10-21T02:11:19.612Z,950.70
2016-10-21T02:12:11.648Z,950.72
2016-10-21T02:13:13.216Z,950.69
2016-10-21T02:14:13.447Z,950.67
2016-10-21T02:15:15.623Z,950.61
2016-10-21T02:16:13.189Z,950.67
2016-10-21T02:17:12.312Z,950.62
2016-10-21T02:18:12.655Z,950.59
2016-10-21T02:19:13.186Z,950.59
2016-10-21T02:20:13.434Z,950.59
2016-10-21T02:21:12.495Z,950.56
2016-10-21T02:22:14.050Z,950.58
2016-10-21T02:23:13.295Z,950.56
2016-10-21T02:24:18.740Z,950.59
2016-10-21T02:25:18.785Z,950.58
2016-10-21T02:26:17.808Z,950.59
2016-10-21T02:27:13.496Z,950.58
2016-10-21T02:28:13.314Z,950.58
2016-10-21T02:29:15.158Z,950.57
2016-10-21T02:30:19.579Z,950.56
2016-10-21T02:31:13.365Z,950.58
2016-10-21T02:32:14.056Z,950.56
2016-10-21T02:33:14.584Z,950.58
2016-10-21T02:34:12.573Z,950.62
2016-10-21T02:35:12.717Z,950.61
2016-10-21T02:36:13.670Z,950.62
2016-10-21T02:37:12.853Z,950.66
2016-10-21T02:38:13.126Z,950.59
2016-10-21T02:39:11.978Z,950.55
2016-10-21T02:40:11.815Z,950.61
2016-10-21T02:41:12.208Z,950.61
2016-10-21T02:42:12.987Z,950.60
2016-10-21T02:43:12.081Z,950.56
2016-10-21T02:44:17.990Z,950.56
2016-10-21T02:45:12.800Z,950.55
2016-10-21T02:46:10.888Z,950.55
2016-10-21T02:47:13.022Z,950.54
2016-10-21T02:48:12.862Z,950.57
2016-10-21T02:49:11.918Z,950.61
2016-10-21T02:50:13.745Z,950.59
2016-10-21T02:51:12.636Z,950.57
2016-10-21T02:52:18.482Z,950.59
2016-10-21T02:53:14.307Z,950.59
2016-10-21T02:54:12.312Z,950.61
2016-10-21T02:55:13.019Z,950.59
2016-10-21T02:56:13.141Z,950.54
2016-10-21T02:57:12.239Z,950.53
2016-10-21T02:58:12.310Z,950.54
2016-10-21T02:59:12.947Z,950.52
2016-10-21T03:00:12.401Z,950.51
2016-10-21T03:01:13.054Z,950.55
2016-10-21T03:02:13.025Z,950.54
2016-10-21T03:03:12.178Z,950.54
2016-10-21T03:04:13.036Z,950.55
2016-10-21T03:05:12.081Z,950.51
2016-10-21T03:06:13.888Z,950.53
2016-10-21T03:07:17.549Z,950.54
2016-10-21T03:08:13.361Z,950.54
2016-10-21T03:09:15.158Z,950.54
2016-10-21T03:10:13.086Z,950.51
2016-10-21T03:11:11.921Z,950.57
2016-10-21T03:12:12.467Z,950.52
2016-10-21T03:13:12.377Z,950.51
2016-10-21T03:14:12.979Z,950.47
2016-10-21T03:15:11.975Z,950.47
2016-10-21T03:16:12.574Z,950.44
2016-10-21T03:17:12.685Z,950.42
2016-10-21T03:18:11.821Z,950.45
2016-10-21T03:19:11.865Z,950.45
2016-10-21T03:20:12.436Z,950.47
2016-10-21T03:21:13.519Z,950.50
2016-10-21T03:22:12.518Z,950.45
2016-10-21T03:23:12.852Z,950.48
2016-10-21T03:24:13.050Z,950.51
2016-10-21T03:25:13.243Z,950.48
2016-10-21T03:26:13.973Z,950.51
2016-10-21T03:27:12.999Z,950.49
2016-10-21T03:28:12.636Z,950.54
2016-10-21T03:29:19.929Z,950.51
2016-10-21T03:30:13.754Z,950.52
2016-10-21T03:31:12.132Z,950.56
2016-10-21T03:32:12.627Z,950.55
2016-10-21T03:33:12.462Z,950.59
2016-10-21T03:34:12.347Z,950.56
2016-10-21T03:35:12.424Z,950.54
2016-10-21T03:36:13.203Z,950.51
2016-10-21T03:37:11.185Z,950.55
2016-10-21T03:38:13.032Z,950.56
2016-10-21T03:39:13.476Z,950.62
2016-10-21T03:40:11.550Z,950.60
2016-10-21T03:41:13.246Z,950.60
2016-10-21T03:42:13.268Z,950.63
2016-10-21T03:43:14.499Z,950.55
2016-10-21T03:44:14.289Z,950.56
2016-10-21T03:45:12.171Z,950.56
2016-10-21T03:46:12.205Z,950.56
2016-10-21T03:47:12.998Z,950.54
2016-10-21T03:48:12.632Z,950.56
2016-10-21T03:49:19.024Z,950.58
2016-10-21T03:50:12.544Z,950.55
2016-10-21T03:51:13.498Z,950.58
2016-10-21T03:52:13.121Z,950.57
2016-10-21T03:53:13.318Z,950.56
2016-10-21T03:54:12.864Z,950.53
2016-10-21T03:55:12.345Z,950.54
2016-10-21T03:56:13.299Z,950.51
2016-10-21T03:57:13.070Z,950.48
2016-10-21T03:58:17.889Z,950.47
2016-10-21T03:59:12.902Z,950.47
2016-10-21T04:00:13.716Z,950.51
2016-10-21T04:01:13.429Z,950.51
2016-10-21T04:02:13.340Z,950.47
2016-10-21T04:03:12.918Z,950.51
2016-10-21T04:04:10.903Z,950.48
2016-10-21T04:05:14.708Z,950.46
2016-10-21T04:06:13.817Z,950.47
2016-10-21T04:07:13.351Z,950.48
2016-10-21T04:08:11.472Z,950.46
2016-10-21T04:09:12.592Z,950.48
2016-10-21T04:10:13.063Z,950.48
2016-10-21T04:11:13.232Z,950.46
2016-10-21T04:12:12.240Z,950.47
2016-10-21T04:13:12.391Z,950.47
2016-10-21T04:14:13.671Z,950.50
2016-10-21T04:15:13.296Z,950.47
2016-10-21T04:16:13.958Z,950.48
2016-10-21T04:17:12.907Z,950.47
2016-10-21T04:18:13.030Z,950.48
2016-10-21T04:19:12.023Z,950.44
2016-10-21T04:20:13.377Z,950.42
2016-10-21T04:21:12.254Z,950.42
2016-10-21T04:22:13.507Z,950.47
2016-10-21T04:23:12.666Z,950.44
2016-10-21T04:24:13.303Z,950.40
2016-10-21T04:25:16.746Z,950.42
2016-10-21T04:26:11.707Z,950.42
2016-10-21T04:27:14.875Z,950.45
2016-10-21T04:28:13.859Z,950.44
2016-10-21T04:29:12.668Z,950.46
2016-10-21T04:30:13.256Z,950.43
2016-10-21T04:31:13.119Z,950.42
2016-10-21T04:32:11.148Z,950.45
2016-10-21T04:33:19.769Z,950.43
2016-10-21T04:34:12.102Z,950.47
2016-10-21T04:35:12.555Z,950.44
2016-10-21T04:36:12.555Z,950.44
2016-10-21T04:37:11.227Z,950.45
2016-10-21T04:38:18.525Z,950.52
2016-10-21T04:39:13.007Z,950.49
2016-10-21T04:40:12.632Z,950.58
2016-10-21T04:41:14.815Z,950.53
2016-10-21T04:42:12.647Z,950.50
2016-10-21T04:43:14.453Z,950.48
2016-10-21T04:44:12.295Z,950.49
2016-10-21T04:45:12.257Z,950.49
2016-10-21T04:46:12.921Z,950.52
2016-10-21T04:47:12.800Z,950.48
2016-10-21T04:48:12.838Z,950.50
2016-10-21T04:49:11.922Z,950.49
2016-10-21T04:50:11.955Z,950.49
2016-10-21T04:51:12.035Z,950.51
2016-10-21T04:52:13.096Z,950.48
2016-10-21T04:53:12.068Z,950.52
2016-10-21T04:54:13.747Z,950.53
2016-10-21T04:55:12.228Z,950.48
2016-10-21T04:56:12.886Z,950.51
2016-10-21T04:57:12.460Z,950.55
2016-10-21T04:58:12.371Z,950.54
2016-10-21T04:59:12.443Z,950.54
2016-10-21T05:00:13.176Z,950.56
2016-10-21T05:01:12.643Z,950.59
2016-10-21T05:02:12.628Z,950.60
2016-10-21T05:03:12.630Z,950.60
2016-10-21T05:04:13.546Z,950.58
2016-10-21T05:05:13.165Z,950.62
2016-10-21T05:06:10.206Z,950.65
2016-10-21T05:07:18.726Z,950.59
2016-10-21T05:08:13.168Z,950.64
2016-10-21T05:09:12.625Z,950.66
2016-10-21T05:10:13.983Z,950.67
2016-10-21T05:11:12.775Z,950.66
2016-10-21T05:12:11.857Z,950.63
2016-10-21T05:13:11.879Z,950.68
2016-10-21T05:14:10.200Z,950.65
2016-10-21T05:15:13.844Z,950.66
2016-10-21T05:16:12.385Z,950.60
2016-10-21T05:17:11.320Z,950.60
2016-10-21T05:18:12.858Z,950.61
2016-10-21T05:19:18.101Z,950.61
2016-10-21T05:20:12.087Z,950.66
2016-10-21T05:21:12.795Z,950.62
2016-10-21T05:22:11.772Z,950.69
2016-10-21T05:23:11.895Z,950.63
2016-10-21T05:24:11.987Z,950.67
2016-10-21T05:25:13.745Z,950.68
2016-10-21T05:26:09.920Z,950.69
2016-10-21T05:27:15.541Z,950.63
2016-10-21T05:28:13.075Z,950.63
2016-10-21T05:29:12.828Z,950.59
2016-10-21T05:30:12.691Z,950.59
2016-10-21T05:31:11.944Z,950.62
2016-10-21T05:32:13.069Z,950.61
2016-10-21T05:33:12.827Z,950.66
2016-10-21T05:34:13.621Z,950.59
2016-10-21T05:35:13.366Z,950.62
2016-10-21T05:36:13.234Z,950.63
2016-10-21T05:37:12.949Z,950.59
2016-10-21T05:38:12.713Z,950.59
2016-10-21T05:39:14.094Z,950.61
2016-10-21T05:40:12.307Z,950.59
2016-10-21T05:41:12.983Z,950.61
2016-10-21T05:42:13.164Z,950.60
2016-10-21T05:43:12.825Z,950.58
2016-10-21T05:44:11.310Z,950.60
2016-10-21T05:45:16.186Z,950.63
2016-10-21T05:46:13.045Z,950.59
2016-10-21T05:47:12.435Z,950.65
2016-10-21T05:48:12.730Z,950.64
2016-10-21T05:49:10.739Z,950.62
2016-10-21T05:50:13.018Z,950.64
2016-10-21T05:51:10.817Z,950.68
2016-10-21T05:52:11.863Z,950.68
2016-10-21T05:53:12.450Z,950.67
2016-10-21T05:54:12.588Z,950.70
2016-10-21T05:55:13.210Z,950.72
2016-10-21T05:56:13.271Z,950.73
2016-10-21T05:57:13.073Z,950.75
2016-10-21T05:58:18.590Z,950.74
2016-10-21T05:59:12.562Z,950.77
2016-10-21T06:00:13.433Z,950.76
2016-10-21T06:01:13.015Z,950.80
2016-10-21T06:02:12.085Z,950.83
2016-10-21T06:03:13.486Z,950.83
2016-10-21T06:04:13.950Z,950.91
2016-10-21T06:05:17.552Z,950.90
2016-10-21T06:06:12.696Z,950.93
2016-10-21T06:07:13.845Z,950.93
2016-10-21T06:08:11.917Z,950.97
2016-10-21T06:09:13.707Z,950.94
2016-10-21T06:10:14.675Z,950.95
2016-10-21T06:11:12.954Z,950.94
2016-10-21T06:12:12.583Z,950.91
2016-10-21T06:13:13.267Z,950.97
2016-10-21T06:14:12.866Z,950.98
2016-10-21T06:15:11.928Z,950.94
2016-10-21T06:16:11.950Z,950.97
2016-10-21T06:17:12.145Z,951.02
2016-10-21T06:18:12.139Z,951.01
2016-10-21T06:19:12.267Z,951.00
2016-10-21T06:20:13.944Z,951.00
2016-10-21T06:21:26.978Z,951.02
2016-10-21T06:22:15.196Z,951.05
2016-10-21T06:23:13.267Z,951.08
2016-10-21T06:24:17.881Z,951.11
2016-10-21T06:25:12.396Z,951.06
2016-10-21T06:26:10.831Z,951.08
2016-10-21T06:27:12.828Z,951.10
2016-10-21T06:28:10.899Z,951.14
2016-10-21T06:29:12.585Z,951.14
2016-10-21T06:30:13.453Z,951.20
2016-10-21T06:31:12.507Z,951.22
2016-10-21T06:32:13.358Z,951.19
2016-10-21T06:33:12.223Z,951.20
2016-10-21T06:34:13.052Z,951.23
2016-10-21T06:35:12.189Z,951.23
2016-10-21T06:36:12.669Z,951.25
2016-10-21T06:37:13.432Z,951.27
2016-10-21T06:38:12.709Z,951.26
2016-10-21T06:39:11.832Z,951.31
2016-10-21T06:40:12.393Z,951.25
2016-10-21T06:41:12.588Z,951.18
2016-10-21T06:42:10.207Z,951.23
2016-10-21T06:43:13.448Z,951.24
2016-10-21T06:44:13.174Z,951.28
2016-10-21T06:45:12.926Z,951.32
2016-10-21T06:46:16.113Z,951.33
2016-10-21T06:47:13.860Z,951.31
2016-10-21T06:48:11.823Z,951.45
2016-10-21T06:49:11.818Z,951.37
2016-10-21T06:50:11.757Z,951.35
2016-10-21T06:51:12.804Z,951.33
2016-10-21T06:52:12.372Z,951.31
2016-10-21T06:53:13.233Z,951.35
2016-10-21T06:54:12.344Z,951.44
2016-10-21T06:55:12.450Z,951.39
2016-10-21T06:56:15.291Z,951.40
2016-10-21T06:57:14.913Z,951.41
2016-10-21T06:58:13.359Z,951.42
2016-10-21T06:59:12.315Z,951.43
2016-10-21T07:00:13.248Z,951.45
2016-10-21T07:01:13.327Z,951.41
2016-10-21T07:02:13.238Z,951.44
2016-10-21T07:03:12.416Z,951.42
2016-10-21T07:04:13.500Z,951.45
2016-10-21T07:05:14.090Z,951.48
2016-10-21T07:06:11.790Z,951.46
2016-10-21T07:07:11.942Z,951.49
2016-10-21T07:08:12.054Z,951.50
2016-10-21T07:09:12.202Z,951.53
2016-10-21T07:10:13.116Z,951.53
2016-10-21T07:11:12.961Z,951.53
2016-10-21T07:12:14.083Z,951.51
2016-10-21T07:13:13.150Z,951.56
2016-10-21T07:14:11.235Z,951.59
2016-10-21T07:15:12.206Z,951.53
2016-10-21T07:16:13.003Z,951.60
2016-10-21T07:17:12.420Z,951.60
2016-10-21T07:18:12.374Z,951.62
2016-10-21T07:19:12.316Z,951.59
2016-10-21T07:20:12.993Z,951.64
2016-10-21T07:21:12.627Z,951.62
2016-10-21T07:22:12.821Z,951.62
2016-10-21T07:23:12.370Z,951.66
2016-10-21T07:24:11.728Z,951.67
2016-10-21T07:25:18.651Z,951.68
2016-10-21T07:26:10.471Z,951.66
2016-10-21T07:27:12.420Z,951.69
2016-10-21T07:28:13.210Z,951.71
2016-10-21T07:29:18.230Z,951.72
2016-10-21T07:30:11.947Z,951.73
2016-10-21T07:31:12.054Z,951.71
2016-10-21T07:32:12.087Z,951.75
2016-10-21T07:33:12.175Z,951.74
2016-10-21T07:34:12.857Z,951.79
2016-10-21T07:35:14.128Z,951.80
2016-10-21T07:36:12.846Z,951.77
2016-10-21T07:37:12.791Z,951.80
2016-10-21T07:38:12.449Z,951.73
2016-10-21T07:39:13.139Z,951.74
2016-10-21T07:40:12.108Z,951.80
2016-10-21T07:41:12.827Z,951.74
2016-10-21T07:42:11.827Z,951.77
2016-10-21T07:43:13.496Z,951.80
2016-10-21T07:44:13.170Z,951.79
2016-10-21T07:45:12.227Z,951.84
2016-10-21T07:46:12.288Z,951.82
2016-10-21T07:47:10.990Z,951.80
2016-10-21T07:48:13.351Z,951.78
2016-10-21T07:49:14.181Z,951.81
2016-10-21T07:50:10.945Z,951.82
2016-10-21T07:51:11.832Z,951.82
2016-10-21T07:52:12.588Z,951.78
2016-10-21T07:53:13.430Z,951.82
2016-10-21T07:54:13.019Z,951.81
2016-10-21T07:55:13.017Z,951.85
2016-10-21T07:56:12.009Z,951.83
2016-10-21T07:57:11.897Z,951.85
2016-10-21T07:58:12.398Z,951.84
2016-10-21T07:59:13.211Z,951.85
2016-10-21T08:00:12.171Z,951.82
2016-10-21T08:01:12.927Z,951.81
2016-10-21T08:02:13.612Z,951.78
2016-10-21T08:03:12.870Z,951.83
2016-10-21T08:04:11.009Z,951.80
2016-10-21T08:05:12.551Z,951.82
2016-10-21T08:06:14.362Z,951.79
2016-10-21T08:07:12.549Z,951.83
2016-10-21T08:08:12.626Z,951.80
2016-10-21T08:09:13.449Z,951.83
2016-10-21T08:10:13.259Z,951.84
2016-10-21T08:11:13.461Z,951.81
2016-10-21T08:12:12.443Z,951.83
2016-10-21T08:13:13.431Z,951.83
2016-10-21T08:14:14.254Z,951.86
2016-10-21T08:15:13.245Z,951.85
2016-10-21T08:16:12.810Z,951.87
2016-10-21T08:17:13.001Z,951.86
2016-10-21T08:18:12.630Z,951.88
2016-10-21T08:19:13.937Z,951.86
2016-10-21T08:20:12.716Z,951.88
2016-10-21T08:21:14.833Z,951.85
2016-10-21T08:22:17.431Z,951.89
2016-10-21T08:23:13.346Z,951.86
2016-10-21T08:24:13.051Z,951.89
2016-10-21T08:25:13.129Z,951.86
2016-10-21T08:26:12.167Z,951.93
2016-10-21T08:27:10.768Z,951.90
2016-10-21T08:28:13.394Z,951.92
2016-10-21T08:29:12.414Z,951.89
2016-10-21T08:30:13.201Z,951.95
2016-10-21T08:31:11.116Z,951.91
2016-10-21T08:32:11.902Z,951.96
2016-10-21T08:33:13.433Z,951.94
2016-10-21T08:34:13.189Z,951.94
2016-10-21T08:35:12.849Z,951.98
2016-10-21T08:36:12.684Z,951.93
2016-10-21T08:37:10.458Z,951.94
2016-10-21T08:38:13.378Z,951.95
2016-10-21T08:39:13.480Z,951.93
2016-10-21T08:40:13.410Z,951.91
2016-10-21T08:41:12.446Z,951.85
2016-10-21T08:42:13.422Z,951.87
2016-10-21T08:43:11.068Z,951.86
2016-10-21T08:44:12.047Z,951.90
2016-10-21T08:45:12.632Z,951.90
2016-10-21T08:46:12.631Z,951.87
2016-10-21T08:47:12.650Z,951.89
2016-10-21T08:48:13.199Z,951.90
2016-10-21T08:49:12.727Z,951.95
2016-10-21T08:50:13.697Z,951.99
2016-10-21T08:51:13.381Z,952.02
2016-10-21T08:52:13.119Z,952.03
2016-10-21T08:53:11.916Z,952.03
2016-10-21T08:54:12.299Z,952.05
2016-10-21T08:55:12.200Z,952.00
2016-10-21T08:56:12.256Z,952.03
2016-10-21T08:57:12.438Z,952.04
2016-10-21T08:58:12.578Z,952.04
2016-10-21T08:59:12.587Z,952.01
2016-10-21T09:00:11.814Z,952.03
2016-10-21T09:01:10.779Z,952.05
2016-10-21T09:02:12.815Z,951.98
2016-10-21T09:03:11.756Z,951.99
2016-10-21T09:04:11.721Z,952.04
2016-10-21T09:05:13.027Z,952.02
2016-10-21T09:06:12.628Z,952.04
2016-10-21T09:07:13.396Z,952.05
2016-10-21T09:08:12.619Z,952.05
2016-10-21T09:09:13.344Z,952.03
2016-10-21T09:10:12.270Z,952.00
2016-10-21T09:11:12.820Z,952.00
2016-10-21T09:12:12.625Z,951.99
2016-10-21T09:13:12.529Z,951.97
2016-10-21T09:14:13.172Z,951.98
2016-10-21T09:15:13.006Z,952.04
2016-10-21T09:16:12.816Z,952.03
2016-10-21T09:17:12.644Z,952.02
2016-10-21T09:18:12.783Z,952.01
2016-10-21T09:19:12.430Z,952.05
2016-10-21T09:20:12.991Z,952.04
2016-10-21T09:21:12.059Z,952.04
2016-10-21T09:22:13.657Z,952.06
2016-10-21T09:23:13.459Z,952.05
2016-10-21T09:24:19.658Z,952.05
2016-10-21T09:25:11.585Z,952.06
2016-10-21T09:26:12.761Z,952.05
2016-10-21T09:27:12.172Z,952.07
2016-10-21T09:28:12.735Z,952.06
2016-10-21T09:29:11.870Z,952.11
2016-10-21T09:30:14.627Z,952.09
2016-10-21T09:31:13.156Z,952.08
2016-10-21T09:32:12.990Z,952.12
2016-10-21T09:33:12.809Z,952.13
2016-10-21T09:34:11.837Z,952.17
2016-10-21T09:35:12.201Z,952.13
2016-10-21T09:36:12.178Z,952.15
2016-10-21T09:37:12.592Z,952.12
2016-10-21T09:38:12.581Z,952.15
2016-10-21T09:39:12.903Z,952.12
2016-10-21T09:40:11.909Z,952.16
2016-10-21T09:41:12.645Z,952.20
2016-10-21T09:42:13.350Z,952.19
2016-10-21T09:43:12.979Z,952.20
2016-10-21T09:44:12.867Z,952.17
2016-10-21T09:45:11.940Z,952.19
2016-10-21T09:46:13.855Z,952.21
2016-10-21T09:47:13.497Z,952.23
2016-10-21T09:48:12.381Z,952.17
2016-10-21T09:49:12.251Z,952.21
2016-10-21T09:50:12.319Z,952.18
2016-10-21T09:51:13.780Z,952.21
2016-10-21T09:52:11.701Z,952.22
2016-10-21T09:53:12.640Z,952.22
2016-10-21T09:54:13.152Z,952.23
2016-10-21T09:55:12.894Z,952.27
2016-10-21T09:56:12.829Z,952.25
2016-10-21T09:57:12.635Z,952.29
2016-10-21T09:58:18.412Z,952.21
2016-10-21T09:59:12.980Z,952.25
2016-10-21T10:00:13.766Z,952.25
2016-10-21T10:01:12.668Z,952.22
2016-10-21T10:02:12.631Z,952.28
2016-10-21T10:03:13.385Z,952.24
2016-10-21T10:04:12.464Z,952.24
2016-10-21T10:05:14.263Z,952.26
2016-10-21T10:06:12.978Z,952.31
2016-10-21T10:07:19.280Z,952.31
2016-10-21T10:08:14.205Z,952.29
2016-10-21T10:09:12.181Z,952.32
2016-10-21T10:10:12.308Z,952.31
2016-10-21T10:11:12.843Z,952.33
2016-10-21T10:12:12.367Z,952.40
2016-10-21T10:13:12.389Z,952.35
2016-10-21T10:14:12.983Z,952.34
2016-10-21T10:15:13.624Z,952.32
2016-10-21T10:16:12.683Z,952.36
2016-10-21T10:17:10.771Z,952.35
2016-10-21T10:18:11.867Z,952.37
2016-10-21T10:19:11.895Z,952.35
2016-10-21T10:20:10.098Z,952.35
2016-10-21T10:21:12.372Z,952.39
2016-10-21T10:22:14.253Z,952.33
2016-10-21T10:23:13.153Z,952.30
2016-10-21T10:24:12.139Z,952.33
2016-10-21T10:25:11.416Z,952.27
2016-10-21T10:26:13.028Z,952.31
2016-10-21T10:27:12.869Z,952.28
2016-10-21T10:28:09.994Z,952.25
2016-10-21T10:29:12.837Z,952.25
2016-10-21T10:30:12.220Z,952.24
2016-10-21T10:31:12.814Z,952.26
2016-10-21T10:32:12.272Z,952.26
2016-10-21T10:33:11.355Z,952.27
2016-10-21T10:34:10.407Z,952.29
2016-10-21T10:35:12.290Z,952.27
2016-10-21T10:36:12.818Z,952.29
2016-10-21T10:37:12.611Z,952.30
2016-10-21T10:38:12.603Z,952.27
2016-10-21T10:39:11.237Z,952.29
2016-10-21T10:40:14.485Z,952.27
2016-10-21T10:41:12.816Z,952.34
2016-10-21T10:42:11.861Z,952.31
2016-10-21T10:43:11.989Z,952.27
2016-10-21T10:44:12.719Z,952.28
2016-10-21T10:45:12.838Z,952.35
2016-10-21T10:46:11.985Z,952.31
2016-10-21T10:47:12.660Z,952.30
2016-10-21T10:48:15.219Z,952.31
2016-10-21T10:49:12.427Z,952.28
2016-10-21T10:50:13.088Z,952.30
2016-10-21T10:51:14.809Z,952.27
2016-10-21T10:52:11.868Z,952.27
2016-10-21T10:53:12.669Z,952.27
2016-10-21T10:54:12.625Z,952.28
2016-10-21T10:55:13.432Z,952.22
2016-10-21T10:56:13.351Z,952.23
2016-10-21T10:57:11.106Z,952.25
2016-10-21T10:58:12.719Z,952.23
2016-10-21T10:59:10.760Z,952.23
2016-10-21T11:00:13.782Z,952.23
2016-10-21T11:01:12.352Z,952.21
2016-10-21T11:02:12.318Z,952.17
2016-10-21T11:03:12.271Z,952.21
2016-10-21T11:04:12.956Z,952.18
2016-10-21T11:05:11.875Z,952.19
2016-10-21T11:06:11.851Z,952.18
2016-10-21T11:07:10.895Z,952.16
2016-10-21T11:08:11.721Z,952.20
2016-10-21T11:09:12.230Z,952.18
2016-10-21T11:10:13.498Z,952.19
2016-10-21T11:11:13.299Z,952.14
2016-10-21T11:12:12.138Z,952.17
2016-10-21T11:13:12.089Z,952.19
2016-10-21T11:14:13.796Z,952.17
2016-10-21T11:15:11.893Z,952.16
2016-10-21T11:16:18.208Z,952.17
2016-10-21T11:17:10.409Z,952.21
2016-10-21T11:18:12.983Z,952.15
2016-10-21T11:19:12.639Z,952.19
2016-10-21T11:20:13.956Z,952.18
2016-10-21T11:21:12.242Z,952.27
2016-10-21T11:22:13.251Z,952.20
2016-10-21T11:23:12.284Z,952.24
2016-10-21T11:24:12.994Z,952.24
2016-10-21T11:25:13.134Z,952.26
2016-10-21T11:26:12.134Z,952.26
2016-10-21T11:27:12.834Z,952.25
2016-10-21T11:28:13.345Z,952.28
2016-10-21T11:29:13.883Z,952.26
2016-10-21T11:30:12.533Z,952.22
2016-10-21T11:31:12.545Z,952.27
2016-10-21T11:32:13.088Z,952.25
2016-10-21T11:33:12.822Z,952.27
2016-10-21T11:34:11.858Z,952.22
2016-10-21T11:35:12.409Z,952.21
2016-10-21T11:36:12.462Z,952.24
2016-10-21T11:37:13.103Z,952.20
2016-10-21T11:38:12.741Z,952.23
2016-10-21T11:39:12.241Z,952.26
2016-10-21T11:40:12.270Z,952.25
2016-10-21T11:41:12.630Z,952.21
2016-10-21T11:42:13.315Z,952.25
2016-10-21T11:43:21.642Z,952.16
2016-10-21T11:44:14.296Z,952.16
2016-10-21T11:45:13.949Z,952.14
2016-10-21T11:46:12.623Z,952.11
2016-10-21T11:47:12.704Z,952.13
2016-10-21T11:48:13.377Z,952.10
2016-10-21T11:49:12.875Z,952.09
2016-10-21T11:50:14.331Z,952.12
2016-10-21T11:51:15.893Z,952.13
2016-10-21T11:52:12.143Z,952.11
2016-10-21T11:53:13.010Z,952.11
2016-10-21T11:54:18.075Z,952.12
2016-10-21T11:55:11.957Z,952.16
2016-10-21T11:56:10.060Z,952.20
2016-10-21T11:57:12.640Z,952.13
2016-10-21T11:58:13.443Z,952.20
2016-10-21T11:59:12.372Z,952.16
2016-10-21T12:00:12.981Z,952.18
2016-10-21T12:01:11.991Z,952.21
2016-10-21T12:02:12.844Z,952.20
2016-10-21T12:03:12.804Z,952.16
2016-10-21T12:04:11.753Z,952.20
2016-10-21T12:05:13.017Z,952.19
2016-10-21T12:06:11.911Z,952.19
2016-10-21T12:07:10.079Z,952.15
2016-10-21T12:08:12.980Z,952.17
2016-10-21T12:09:12.693Z,952.19
2016-10-21T12:10:13.370Z,952.20
2016-10-21T12:11:14.056Z,952.20
2016-10-21T12:12:12.141Z,952.18
2016-10-21T12:13:12.175Z,952.23
2016-10-21T12:14:14.144Z,952.22
2016-10-21T12:15:12.099Z,952.20
2016-10-21T12:16:12.848Z,952.20
2016-10-21T12:17:11.879Z,952.18
2016-10-21T12:18:11.957Z,952.17
2016-10-21T12:19:12.077Z,952.21
2016-10-21T12:20:13.039Z,952.18
2016-10-21T12:21:14.830Z,952.19
2016-10-21T12:22:12.228Z,952.20
2016-10-21T12:23:12.983Z,952.13
2016-10-21T12:24:12.186Z,952.14
2016-10-21T12:25:13.994Z,952.14
2016-10-21T12:26:10.642Z,952.13
2016-10-21T12:27:15.241Z,952.09
2016-10-21T12:28:12.237Z,952.06